KBKT/BKT METAR and TAF weather

Enter ICAO airport designator
Station Type Date Time Source
KBKT METAR 2020/03/31 10:15 UTC NOAA

KBKT 311015Z AUTO 00000KT 10SM CLR 08/04 A2998 RMK AO1 T00830039


Station Type Date Time Source
KBKT Decoded METAR 2020/03/31 10:15 UTC NOAA

Ft. Pickett / Blackstone, VA, United States (KBKT) 37-05N 077-57W
Mar 31, 2020 - 06:15 AM EDT / 2020.03.31 1015 UTC
Wind: Calm:0
Visibility: 10 mile(s):0
Sky conditions: clear
Temperature: 46.9 F (8.3 C)
Dew Point: 39.0 F (3.9 C)
Relative Humidity: 73%
Pressure (altimeter): 29.98 in. Hg (1015 hPa)
ob: KBKT 311015Z AUTO 00000KT 10SM CLR 08/04 A2998 RMK AO1 T00830039
cycle: 10

Station Type Date Time Source
KBKT TAF UTC NOAA

Error!

Example: see airport list